Time;durP1;ratioP1;P1;durP2;ratioP2;P2;SDS_P1;SDS_P2;PMS_P1;PMS_P2;Temp;Humidity;BMP_temperature;BMP_pressure;BME280_temperature;BME280_humidity;BME280_pressure;Samples;Min_cycle;Max_cycle;Signal;HPM_P1;HPM_P2
2021/05/05 00:00:41;;;;;;;4.47;4.07;;;;;;;;;;2098504;28;20194;-61
2021/05/05 00:01:52;;;;;;;4.10;3.80;;;;;;;;;;2097155;28;20257;-61
2021/05/05 00:02:52;;;;;;;4.45;3.90;;;;;;;;;;2088398;28;20196;-62
2021/05/05 00:03:53;;;;;;;6.32;3.95;;;;;;;;;;2096897;28;20175;-63
2021/05/05 00:04:53;;;;;;;4.57;4.27;;;;;;;;;;2100167;28;20265;-63
2021/05/05 00:05:54;;;;;;;4.27;4.00;;;;;;;;;;2114098;28;20528;-63
2021/05/05 00:06:55;;;;;;;4.43;4.07;;;;;;;;;;2099645;28;20215;-62
2021/05/05 00:07:55;;;;;;;4.90;4.60;;;;;;;;;;2109062;28;20255;-60
2021/05/05 00:08:55;;;;;;;5.30;4.80;;;;;;;;;;2109075;28;20755;-62
2021/05/05 00:09:56;;;;;;;4.37;4.07;;;;;;;;;;2100715;28;20179;-60
2021/05/05 00:10:57;;;;;;;4.73;4.27;;;;;;;;;;2106036;28;20626;-62
2021/05/05 00:11:57;;;;;;;5.28;4.00;;;;;;;;;;2100748;28;20185;-62
2021/05/05 00:12:58;;;;;;;5.47;3.97;;;;;;;;;;2098715;28;20239;-60
2021/05/05 00:13:58;;;;;;;4.90;4.15;;;;;;;;;;2099135;28;20175;-62
2021/05/05 00:14:58;;;;;;;3.40;3.07;;;;;;;;;;2101135;28;20186;-63
2021/05/05 00:15:58;;;;;;;3.37;3.07;;;;;;;;;;2100682;28;20178;-62
2021/05/05 00:16:59;;;;;;;5.37;4.17;;;;;;;;;;2097107;28;20519;-62
2021/05/05 00:17:59;;;;;;;3.40;3.20;;;;;;;;;;2097881;28;20182;-62
2021/05/05 00:19:00;;;;;;;4.90;3.83;;;;;;;;;;2109136;28;20176;-61
2021/05/05 00:20:00;;;;;;;3.37;3.07;;;;;;;;;;2100699;28;20194;-62
2021/05/05 00:21:00;;;;;;;3.80;3.25;;;;;;;;;;2103426;28;20178;-61
2021/05/05 00:22:00;;;;;;;3.95;3.53;;;;;;;;;;2098092;28;20182;-62
2021/05/05 00:23:01;;;;;;;3.50;3.20;;;;;;;;;;2103203;28;20186;-62
2021/05/05 00:24:02;;;;;;;3.38;3.17;;;;;;;;;;2098404;28;20186;-62
2021/05/05 00:25:03;;;;;;;4.60;3.17;;;;;;;;;;2103339;28;20819;-61
2021/05/05 00:26:04;;;;;;;2.83;2.63;;;;;;;;;;2099148;28;20585;-63
2021/05/05 00:27:04;;;;;;;3.03;2.70;;;;;;;;;;2111408;28;20201;-63
2021/05/05 00:28:04;;;;;;;2.70;2.60;;;;;;;;;;2107957;28;20202;-62
2021/05/05 00:29:05;;;;;;;4.97;3.40;;;;;;;;;;2111476;28;20182;-61
2021/05/05 00:30:06;;;;;;;3.80;3.03;;;;;;;;;;2108384;28;20170;-62
2021/05/05 00:31:07;;;;;;;3.40;3.20;;;;;;;;;;2111832;28;20177;-60
2021/05/05 00:32:08;;;;;;;5.00;3.17;;;;;;;;;;2109715;28;20170;-62
2021/05/05 00:33:10;;;;;;;3.70;3.00;;;;;;;;;;2100431;28;20186;-63
2021/05/05 00:34:10;;;;;;;3.77;3.13;;;;;;;;;;2093698;28;20179;-62
2021/05/05 00:35:10;;;;;;;3.93;2.50;;;;;;;;;;2105221;28;20661;-60
2021/05/05 00:36:11;;;;;;;4.00;2.83;;;;;;;;;;2100542;28;20596;-61
2021/05/05 00:37:11;;;;;;;2.93;2.73;;;;;;;;;;2097533;28;20194;-60
2021/05/05 00:38:11;;;;;;;5.00;3.07;;;;;;;;;;2106779;28;20639;-61
2021/05/05 00:39:12;;;;;;;2.47;2.25;;;;;;;;;;2109442;28;20525;-60
2021/05/05 00:40:13;;;;;;;4.30;2.80;;;;;;;;;;2112788;28;20257;-56
2021/05/05 00:41:13;;;;;;;4.73;2.60;;;;;;;;;;2106674;28;20184;-61
2021/05/05 00:42:13;;;;;;;3.80;3.10;;;;;;;;;;2105954;28;20174;-61
2021/05/05 00:43:14;;;;;;;3.20;2.65;;;;;;;;;;2103469;28;20586;-61
2021/05/05 00:44:16;;;;;;;4.63;2.80;;;;;;;;;;2111902;28;20197;-60
2021/05/05 00:45:16;;;;;;;2.83;2.50;;;;;;;;;;2107919;28;20169;-61
2021/05/05 00:46:16;;;;;;;3.65;2.90;;;;;;;;;;2102824;28;20627;-61
2021/05/05 00:47:18;;;;;;;2.83;2.60;;;;;;;;;;2104397;28;20206;-59
2021/05/05 00:48:18;;;;;;;3.23;2.70;;;;;;;;;;2111368;28;20204;-61
2021/05/05 00:49:19;;;;;;;3.93;3.07;;;;;;;;;;2106213;28;20173;-59
2021/05/05 00:50:19;;;;;;;2.85;2.55;;;;;;;;;;2106495;28;20174;-58
2021/05/05 00:51:20;;;;;;;4.13;2.95;;;;;;;;;;2102806;28;20169;-61
2021/05/05 00:52:20;;;;;;;3.53;2.65;;;;;;;;;;2110595;28;20177;-60
2021/05/05 00:53:21;;;;;;;2.97;2.08;;;;;;;;;;2110583;28;20162;-60
2021/05/05 00:54:21;;;;;;;3.10;2.67;;;;;;;;;;2103731;28;20627;-60
2021/05/05 00:55:21;;;;;;;2.67;2.50;;;;;;;;;;2101999;28;20183;-61
2021/05/05 00:56:23;;;;;;;2.73;2.20;;;;;;;;;;2101305;28;20197;-60
2021/05/05 00:57:25;;;;;;;2.80;2.20;;;;;;;;;;2083307;28;20195;-60
2021/05/05 00:58:25;;;;;;;4.40;2.87;;;;;;;;;;2090816;28;20259;-61
2021/05/05 00:59:26;;;;;;;3.27;2.77;;;;;;;;;;2097609;28;20178;-61
2021/05/05 01:00:27;;;;;;;2.80;2.70;;;;;;;;;;2097695;28;20171;-60
2021/05/05 01:01:27;;;;;;;2.03;1.83;;;;;;;;;;2099463;28;20582;-61
2021/05/05 01:02:27;;;;;;;3.23;2.90;;;;;;;;;;2106423;28;20174;-61
2021/05/05 01:03:28;;;;;;;4.07;2.27;;;;;;;;;;2097524;28;20253;-62
2021/05/05 01:04:28;;;;;;;4.07;2.83;;;;;;;;;;2103908;28;20186;-60
2021/05/05 01:05:28;;;;;;;2.83;2.47;;;;;;;;;;2105270;28;20199;-57
2021/05/05 01:06:29;;;;;;;3.80;2.93;;;;;;;;;;2115790;28;20288;-61
2021/05/05 01:07:29;;;;;;;3.53;2.90;;;;;;;;;;2112328;28;20201;-62
2021/05/05 01:08:31;;;;;;;3.40;2.93;;;;;;;;;;2103171;28;20534;-62
2021/05/05 01:09:32;;;;;;;3.17;2.87;;;;;;;;;;2096867;28;20171;-62
2021/05/05 01:10:33;;;;;;;3.50;2.67;;;;;;;;;;2100116;28;20194;-62
2021/05/05 01:11:33;;;;;;;5.03;2.77;;;;;;;;;;2095681;28;20244;-62
2021/05/05 01:12:33;;;;;;;4.90;2.97;;;;;;;;;;2093492;28;20199;-60
2021/05/05 01:13:34;;;;;;;4.10;2.97;;;;;;;;;;2092016;28;20187;-62
2021/05/05 01:14:34;;;;;;;3.13;2.80;;;;;;;;;;2103673;28;20169;-62
2021/05/05 01:15:34;;;;;;;3.20;3.10;;;;;;;;;;2102565;28;20249;-62
2021/05/05 01:16:35;;;;;;;4.40;4.00;;;;;;;;;;2100173;28;20202;-62
2021/05/05 01:17:36;;;;;;;4.03;3.70;;;;;;;;;;2103812;28;20194;-61
2021/05/05 01:18:38;;;;;;;3.63;3.33;;;;;;;;;;2099567;28;20175;-62
2021/05/05 01:19:39;;;;;;;4.60;4.20;;;;;;;;;;2099573;28;20281;-62
2021/05/05 01:20:39;;;;;;;4.27;3.97;;;;;;;;;;2089702;28;20164;-62
2021/05/05 01:21:40;;;;;;;5.67;4.00;;;;;;;;;;2103964;28;20182;-61
2021/05/05 01:22:40;;;;;;;4.90;4.50;;;;;;;;;;2105978;28;20177;-59
2021/05/05 01:23:40;;;;;;;8.13;4.70;;;;;;;;;;2104398;28;20253;-62
2021/05/05 01:24:40;;;;;;;7.03;4.07;;;;;;;;;;2103611;28;20292;-62
2021/05/05 01:25:41;;;;;;;5.30;4.80;;;;;;;;;;2099207;28;20233;-62
2021/05/05 01:26:41;;;;;;;5.77;5.07;;;;;;;;;;2092378;28;20207;-61
2021/05/05 01:27:42;;;;;;;5.13;4.83;;;;;;;;;;2087724;28;20552;-62
2021/05/05 01:28:44;;;;;;;7.47;4.80;;;;;;;;;;2101055;28;20189;-61
2021/05/05 01:29:48;;;;;;;4.97;4.47;;;;;;;;;;2110236;28;20182;-62
2021/05/05 01:30:49;;;;;;;8.73;4.73;;;;;;;;;;2101521;28;20200;-62
2021/05/05 01:31:51;;;;;;;6.13;2.47;;;;;;;;;;2090535;28;20163;-62
2021/05/05 01:32:53;;;;;;;3.27;3.03;;;;;;;;;;2098738;28;20561;-63
2021/05/05 01:33:54;;;;;;;2.60;2.50;;;;;;;;;;2105711;28;20214;-63
2021/05/05 01:34:54;;;;;;;4.83;3.43;;;;;;;;;;2092843;28;20183;-63
2021/05/05 01:35:55;;;;;;;3.47;2.70;;;;;;;;;;2097002;28;20221;-63
2021/05/05 01:36:55;;;;;;;6.33;2.93;;;;;;;;;;2100581;28;20554;-63
2021/05/05 01:37:56;;;;;;;3.40;3.20;;;;;;;;;;2105018;28;20209;-63
2021/05/05 01:38:56;;;;;;;2.33;2.13;;;;;;;;;;2089996;28;20205;-63
2021/05/05 01:39:56;;;;;;;2.60;2.47;;;;;;;;;;2105817;28;20602;-62
2021/05/05 01:40:57;;;;;;;3.00;2.80;;;;;;;;;;2098547;28;20262;-62
2021/05/05 01:41:57;;;;;;;3.53;3.20;;;;;;;;;;2089699;28;20251;-63
2021/05/05 01:42:58;;;;;;;3.67;3.37;;;;;;;;;;2097389;28;20230;-60
2021/05/05 01:44:00;;;;;;;5.10;3.40;;;;;;;;;;2099093;28;20170;-56
2021/05/05 01:45:01;;;;;;;3.33;3.10;;;;;;;;;;2088775;28;20191;-61
2021/05/05 01:46:02;;;;;;;3.50;3.30;;;;;;;;;;2089305;28;20233;-60
2021/05/05 01:47:04;;;;;;;4.40;3.23;;;;;;;;;;2089451;28;20289;-62
2021/05/05 01:48:07;;;;;;;7.10;3.90;;;;;;;;;;2098787;28;20171;-61
2021/05/05 01:49:07;;;;;;;3.67;3.47;;;;;;;;;;2103612;28;20201;-62
2021/05/05 01:50:08;;;;;;;4.60;3.83;;;;;;;;;;2095036;28;20178;-62
2021/05/05 01:51:08;;;;;;;4.20;3.90;;;;;;;;;;2097117;28;20183;-61
2021/05/05 01:52:09;;;;;;;7.07;4.67;;;;;;;;;;2084455;28;20902;-59
2021/05/05 01:53:10;;;;;;;10.63;5.10;;;;;;;;;;2092452;28;20262;-56
2021/05/05 01:54:12;;;;;;;4.70;4.13;;;;;;;;;;2106308;28;20179;-61
2021/05/05 01:55:13;;;;;;;4.87;4.47;;;;;;;;;;2110531;28;20497;-61
2021/05/05 01:56:15;;;;;;;5.47;5.00;;;;;;;;;;2101952;28;20556;-62
2021/05/05 01:57:37;;;;;;;5.20;4.73;;;;;;;;;;2096201;28;20178;-61
2021/05/05 01:58:43;;;;;;;5.50;4.60;;;;;;;;;;2104853;28;20178;-61
2021/05/05 01:59:43;;;;;;;4.87;4.57;;;;;;;;;;2098278;28;20651;-62
2021/05/05 02:00:43;;;;;;;5.90;5.30;;;;;;;;;;2097528;28;20698;-61
2021/05/05 02:01:45;;;;;;;6.03;5.60;;;;;;;;;;2089709;28;20620;-61
2021/05/05 02:02:48;;;;;;;5.70;5.27;;;;;;;;;;2084912;28;20238;-62
2021/05/05 02:04:01;;;;;;;5.83;5.33;;;;;;;;;;2084454;28;20253;-62
2021/05/05 02:05:21;;;;;;;5.20;4.80;;;;;;;;;;2088433;28;20261;-61
2021/05/05 02:06:32;;;;;;;6.37;5.77;;;;;;;;;;2097072;28;20570;-62
2021/05/05 02:08:01;;;;;;;6.40;5.83;;;;;;;;;;2093293;28;20510;-62
2021/05/05 02:09:03;;;;;;;6.43;5.83;;;;;;;;;;2100869;28;20178;-62
2021/05/05 02:10:04;;;;;;;6.83;6.30;;;;;;;;;;2104411;28;20587;-62
2021/05/05 02:11:05;;;;;;;6.70;6.10;;;;;;;;;;2099352;28;20253;-56
2021/05/05 02:12:06;;;;;;;7.47;6.40;;;;;;;;;;2088938;28;20583;-62
2021/05/05 02:13:09;;;;;;;7.33;6.73;;;;;;;;;;2091559;28;20195;-61
2021/05/05 02:14:09;;;;;;;7.33;5.90;;;;;;;;;;2102234;28;20183;-63
2021/05/05 02:15:11;;;;;;;8.00;6.10;;;;;;;;;;2095734;28;20174;-63
2021/05/05 02:16:12;;;;;;;6.90;6.30;;;;;;;;;;2093989;28;20249;-62
2021/05/05 02:17:21;;;;;;;6.90;6.20;;;;;;;;;;2095179;28;20336;-62
2021/05/05 02:18:23;;;;;;;10.10;7.03;;;;;;;;;;2089169;28;20175;-63
2021/05/05 02:19:24;;;;;;;7.87;6.20;;;;;;;;;;2087119;28;20246;-62
2021/05/05 02:20:25;;;;;;;6.80;6.20;;;;;;;;;;2090832;28;20168;-61
2021/05/05 02:21:25;;;;;;;6.27;5.67;;;;;;;;;;2093170;28;20167;-59
2021/05/05 02:22:26;;;;;;;7.40;6.37;;;;;;;;;;2091495;28;20889;-60
2021/05/05 02:23:26;;;;;;;9.30;5.73;;;;;;;;;;2089229;28;20252;-61
2021/05/05 02:24:27;;;;;;;5.37;4.93;;;;;;;;;;2089604;28;20229;-62
2021/05/05 02:25:29;;;;;;;5.77;5.17;;;;;;;;;;2097820;28;20167;-62
2021/05/05 02:26:35;;;;;;;6.03;5.53;;;;;;;;;;2101471;28;20709;-62
2021/05/05 02:27:35;;;;;;;5.80;5.20;;;;;;;;;;2098718;28;20237;-62
2021/05/05 02:28:38;;;;;;;7.03;6.37;;;;;;;;;;2102820;28;20174;-61
2021/05/05 02:29:59;;;;;;;8.33;6.10;;;;;;;;;;2100622;28;20167;-62
2021/05/05 02:31:10;;;;;;;5.23;4.73;;;;;;;;;;2101466;28;20737;-62
2021/05/05 02:32:12;;;;;;;8.70;6.23;;;;;;;;;;2103238;28;20171;-62
2021/05/05 02:33:12;;;;;;;10.73;6.80;;;;;;;;;;2082273;28;20160;-59
2021/05/05 02:34:13;;;;;;;8.10;4.87;;;;;;;;;;2087652;28;20291;-62
2021/05/05 02:35:14;;;;;;;8.97;6.27;;;;;;;;;;2092462;28;20317;-60
2021/05/05 02:36:14;;;;;;;9.07;6.93;;;;;;;;;;2105271;28;20591;-62
2021/05/05 02:37:16;;;;;;;8.50;7.07;;;;;;;;;;2102373;28;20185;-57
2021/05/05 02:38:16;;;;;;;10.33;6.30;;;;;;;;;;2092775;28;20262;-62
2021/05/05 02:39:18;;;;;;;9.80;5.97;;;;;;;;;;2094305;28;20179;-61
2021/05/05 02:40:20;;;;;;;7.60;6.20;;;;;;;;;;2097045;28;20580;-62
2021/05/05 02:41:21;;;;;;;12.53;7.00;;;;;;;;;;2106974;28;20188;-62
2021/05/05 02:42:22;;;;;;;8.53;5.57;;;;;;;;;;2100727;28;20698;-61
2021/05/05 02:43:22;;;;;;;6.77;5.00;;;;;;;;;;2096540;28;20183;-61
2021/05/05 02:44:24;;;;;;;6.80;6.20;;;;;;;;;;2103859;28;20162;-61
2021/05/05 02:45:24;;;;;;;8.33;6.57;;;;;;;;;;2111022;28;20170;-61
2021/05/05 02:46:24;;;;;;;8.83;6.40;;;;;;;;;;2107221;28;20195;-62
2021/05/05 02:47:24;;;;;;;9.73;5.70;;;;;;;;;;2101248;28;20273;-61
2021/05/05 02:48:27;;;;;;;6.87;5.47;;;;;;;;;;2094963;28;20166;-60
2021/05/05 02:49:28;;;;;;;10.27;5.63;;;;;;;;;;2100521;28;20261;-61
2021/05/05 02:50:29;;;;;;;5.97;4.53;;;;;;;;;;2111268;28;20174;-62
2021/05/05 02:51:29;;;;;;;5.53;4.60;;;;;;;;;;2100043;28;20170;-61
2021/05/05 02:52:30;;;;;;;5.53;4.93;;;;;;;;;;2102914;28;20202;-61
2021/05/05 02:53:30;;;;;;;7.03;4.67;;;;;;;;;;2107159;28;20781;-61
2021/05/05 02:54:31;;;;;;;8.87;5.63;;;;;;;;;;2106150;28;20164;-62
2021/05/05 02:55:31;;;;;;;6.20;5.33;;;;;;;;;;2096837;28;20172;-62
2021/05/05 02:56:32;;;;;;;9.03;6.37;;;;;;;;;;2100477;28;20663;-62
2021/05/05 02:57:32;;;;;;;7.27;5.93;;;;;;;;;;2096913;28;20207;-62
2021/05/05 02:58:32;;;;;;;8.13;5.73;;;;;;;;;;2112145;28;20177;-61
2021/05/05 02:59:34;;;;;;;8.00;5.80;;;;;;;;;;2099862;28;20166;-61
2021/05/05 03:00:34;;;;;;;6.27;5.50;;;;;;;;;;2103317;28;20185;-61
2021/05/05 03:01:34;;;;;;;9.67;5.60;;;;;;;;;;2103338;28;20552;-61
2021/05/05 03:02:34;;;;;;;6.43;5.60;;;;;;;;;;2102392;28;20639;-61
2021/05/05 03:03:35;;;;;;;8.33;4.97;;;;;;;;;;2106169;28;20197;-59
2021/05/05 03:04:35;;;;;;;7.30;4.77;;;;;;;;;;2102883;28;20754;-61
2021/05/05 03:05:35;;;;;;;4.03;3.63;;;;;;;;;;2104238;28;20190;-61
2021/05/05 03:06:36;;;;;;;6.07;4.10;;;;;;;;;;2100646;28;20217;-62
2021/05/05 03:07:36;;;;;;;4.90;3.60;;;;;;;;;;2100348;28;20216;-61
2021/05/05 03:08:36;;;;;;;5.00;4.00;;;;;;;;;;2097148;28;20599;-60
2021/05/05 03:09:37;;;;;;;3.73;3.30;;;;;;;;;;2097805;28;20250;-60
2021/05/05 03:10:37;;;;;;;8.50;4.07;;;;;;;;;;2098467;28;20166;-61
2021/05/05 03:11:37;;;;;;;5.20;4.20;;;;;;;;;;2102002;28;20257;-62
2021/05/05 03:12:38;;;;;;;8.73;4.80;;;;;;;;;;2109143;28;20620;-62
2021/05/05 03:13:38;;;;;;;6.13;3.70;;;;;;;;;;2105987;28;20169;-61
2021/05/05 03:14:39;;;;;;;8.60;4.90;;;;;;;;;;2108311;28;20263;-62
2021/05/05 03:15:39;;;;;;;6.70;4.80;;;;;;;;;;2112118;28;20166;-60
2021/05/05 03:16:40;;;;;;;4.77;4.27;;;;;;;;;;2106169;28;20183;-61
2021/05/05 03:17:40;;;;;;;9.07;4.30;;;;;;;;;;2104452;28;20197;-61
2021/05/05 03:18:40;;;;;;;6.20;4.13;;;;;;;;;;2098272;28;20170;-58
2021/05/05 03:19:41;;;;;;;7.20;4.00;;;;;;;;;;2113582;28;20600;-60
2021/05/05 03:20:41;;;;;;;7.90;4.53;;;;;;;;;;2098187;28;20171;-62
2021/05/05 03:21:42;;;;;;;3.87;3.57;;;;;;;;;;2104763;28;20201;-61
2021/05/05 03:22:42;;;;;;;4.07;3.77;;;;;;;;;;2097365;28;20182;-62
2021/05/05 03:23:42;;;;;;;6.07;3.93;;;;;;;;;;2095755;28;20663;-53
2021/05/05 03:24:42;;;;;;;5.03;4.63;;;;;;;;;;2099836;28;20575;-54
2021/05/05 03:25:43;;;;;;;5.83;4.30;;;;;;;;;;2104744;28;20171;-53
2021/05/05 03:26:43;;;;;;;5.47;4.10;;;;;;;;;;2097737;28;20284;-53
2021/05/05 03:27:44;;;;;;;5.30;4.90;;;;;;;;;;2108270;28;20280;-55
2021/05/05 03:28:44;;;;;;;7.50;4.63;;;;;;;;;;2100732;28;20167;-53
2021/05/05 03:29:44;;;;;;;6.03;4.57;;;;;;;;;;2105721;28;20162;-54
2021/05/05 03:30:45;;;;;;;7.20;4.43;;;;;;;;;;2098881;28;20171;-57
2021/05/05 03:31:45;;;;;;;6.37;3.70;;;;;;;;;;2112847;28;20166;-56
2021/05/05 03:32:45;;;;;;;5.77;4.40;;;;;;;;;;2095256;28;20187;-52
2021/05/05 03:33:45;;;;;;;5.53;3.90;;;;;;;;;;2101664;28;20174;-51
2021/05/05 03:34:46;;;;;;;10.17;4.40;;;;;;;;;;2098104;28;20255;-57
2021/05/05 03:35:46;;;;;;;5.27;4.30;;;;;;;;;;2107814;28;20177;-56
2021/05/05 03:36:46;;;;;;;5.77;4.40;;;;;;;;;;2103708;28;20182;-56
2021/05/05 03:37:47;;;;;;;6.60;5.27;;;;;;;;;;2094909;28;20201;-51
2021/05/05 03:38:47;;;;;;;6.90;4.43;;;;;;;;;;2105476;28;20188;-50
2021/05/05 03:39:47;;;;;;;5.70;4.60;;;;;;;;;;2106371;28;20162;-52
2021/05/05 03:40:47;;;;;;;6.50;4.27;;;;;;;;;;2114091;28;20169;-51
2021/05/05 03:41:48;;;;;;;8.70;4.23;;;;;;;;;;2104191;28;20267;-56
2021/05/05 03:42:48;;;;;;;10.20;5.33;;;;;;;;;;2105783;28;20211;-55
2021/05/05 03:43:48;;;;;;;6.77;4.70;;;;;;;;;;2105825;28;20284;-59
2021/05/05 03:44:48;;;;;;;8.40;5.10;;;;;;;;;;2106635;28;20626;-55
2021/05/05 03:45:49;;;;;;;8.43;5.67;;;;;;;;;;2097561;28;20171;-54
2021/05/05 03:46:49;;;;;;;7.97;4.73;;;;;;;;;;2098452;28;20752;-55
2021/05/05 03:47:49;;;;;;;6.30;5.03;;;;;;;;;;2106341;28;20182;-57
2021/05/05 03:48:50;;;;;;;7.37;5.33;;;;;;;;;;2105630;28;20207;-51
2021/05/05 03:49:50;;;;;;;9.30;5.27;;;;;;;;;;2106569;28;20224;-52
2021/05/05 03:50:53;;;;;;;6.43;4.80;;;;;;;;;;2105653;28;20158;-56
2021/05/05 03:51:53;;;;;;;4.50;4.10;;;;;;;;;;2105656;28;20204;-57
2021/05/05 03:52:53;;;;;;;5.77;4.93;;;;;;;;;;2106199;28;20162;-52
2021/05/05 03:53:53;;;;;;;7.23;4.40;;;;;;;;;;2105891;28;20185;-53
2021/05/05 03:54:54;;;;;;;7.83;4.43;;;;;;;;;;2097279;28;20175;-50
2021/05/05 03:55:54;;;;;;;7.67;5.00;;;;;;;;;;2097559;28;20791;-56
2021/05/05 03:56:54;;;;;;;8.07;5.00;;;;;;;;;;2104481;28;20201;-50
2021/05/05 03:57:55;;;;;;;7.37;5.50;;;;;;;;;;2099426;28;20191;-50
2021/05/05 03:58:55;;;;;;;6.20;4.20;;;;;;;;;;2106830;28;20173;-50
2021/05/05 03:59:55;;;;;;;11.23;5.23;;;;;;;;;;2097372;28;20186;-53
2021/05/05 04:00:56;;;;;;;4.73;4.33;;;;;;;;;;2100592;28;20670;-51
2021/05/05 04:01:56;;;;;;;7.93;4.97;;;;;;;;;;2113691;28;20169;-52
2021/05/05 04:02:56;;;;;;;6.63;4.83;;;;;;;;;;2107016;28;20236;-51
2021/05/05 04:03:56;;;;;;;6.30;4.67;;;;;;;;;;2107868;28;20188;-51
2021/05/05 04:04:57;;;;;;;7.10;4.67;;;;;;;;;;2105729;28;20562;-51
2021/05/05 04:05:57;;;;;;;6.53;5.23;;;;;;;;;;2105653;28;20201;-48
2021/05/05 04:06:57;;;;;;;8.77;5.80;;;;;;;;;;2106053;28;20206;-55
2021/05/05 04:07:58;;;;;;;16.47;6.10;;;;;;;;;;2105519;28;20264;-56
2021/05/05 04:08:58;;;;;;;7.30;4.93;;;;;;;;;;2105334;28;20174;-53
2021/05/05 04:09:58;;;;;;;7.57;5.13;;;;;;;;;;2105167;28;20783;-53
2021/05/05 04:10:58;;;;;;;5.67;4.97;;;;;;;;;;2105616;28;20193;-53
2021/05/05 04:11:59;;;;;;;6.20;5.47;;;;;;;;;;2105618;28;20239;-54
2021/05/05 04:13:00;;;;;;;8.67;4.53;;;;;;;;;;2106171;28;20261;-52
2021/05/05 04:14:01;;;;;;;5.00;4.60;;;;;;;;;;2105419;28;20223;-53
2021/05/05 04:15:03;;;;;;;6.83;4.43;;;;;;;;;;2106202;28;20649;-54
2021/05/05 04:16:03;;;;;;;8.83;4.03;;;;;;;;;;2105825;28;20599;-53
2021/05/05 04:17:03;;;;;;;8.87;5.13;;;;;;;;;;2097169;28;20234;-55
2021/05/05 04:18:04;;;;;;;7.97;4.60;;;;;;;;;;2097251;28;20205;-50
2021/05/05 04:19:04;;;;;;;5.53;4.60;;;;;;;;;;2106270;28;20184;-53
2021/05/05 04:20:05;;;;;;;7.97;4.50;;;;;;;;;;2106094;28;20702;-53
2021/05/05 04:21:07;;;;;;;8.87;5.50;;;;;;;;;;2105810;28;20166;-52
2021/05/05 04:22:07;;;;;;;7.67;3.43;;;;;;;;;;2106039;28;20223;-50
2021/05/05 04:23:08;;;;;;;5.97;4.67;;;;;;;;;;2105791;28;20584;-53
2021/05/05 04:24:09;;;;;;;7.63;4.67;;;;;;;;;;2102897;28;20265;-54
2021/05/05 04:25:09;;;;;;;8.90;4.53;;;;;;;;;;2097171;28;20187;-53
2021/05/05 04:26:09;;;;;;;3.83;3.00;;;;;;;;;;2101345;28;20284;-53
2021/05/05 04:27:10;;;;;;;6.30;4.07;;;;;;;;;;2105734;28;20678;-51
2021/05/05 04:28:10;;;;;;;4.77;4.23;;;;;;;;;;2106064;28;20594;-53
2021/05/05 04:29:10;;;;;;;7.10;4.17;;;;;;;;;;2106067;28;20654;-51
2021/05/05 04:30:13;;;;;;;6.93;4.30;;;;;;;;;;2105511;28;20185;-51
2021/05/05 04:31:13;;;;;;;5.23;4.20;;;;;;;;;;2106210;28;20158;-52
2021/05/05 04:32:14;;;;;;;7.13;3.90;;;;;;;;;;2103257;28;20237;-52
2021/05/05 04:33:14;;;;;;;6.30;3.90;;;;;;;;;;2104779;28;20166;-53
2021/05/05 04:34:15;;;;;;;10.43;5.17;;;;;;;;;;2105453;28;20661;-55
2021/05/05 04:35:15;;;;;;;8.10;3.97;;;;;;;;;;2106230;28;20257;-50
2021/05/05 04:36:16;;;;;;;6.50;4.30;;;;;;;;;;2105697;28;20194;-53
2021/05/05 04:37:16;;;;;;;7.87;3.90;;;;;;;;;;2105833;28;20257;-55
2021/05/05 04:38:16;;;;;;;9.03;3.77;;;;;;;;;;2106107;28;20185;-51
2021/05/05 04:39:17;;;;;;;9.23;3.67;;;;;;;;;;2106155;28;20635;-50
2021/05/05 04:40:17;;;;;;;6.30;3.57;;;;;;;;;;2097345;28;20248;-52
2021/05/05 04:41:17;;;;;;;7.07;3.67;;;;;;;;;;2097820;28;20221;-52
2021/05/05 04:42:17;;;;;;;10.20;4.17;;;;;;;;;;2106059;28;20224;-55
2021/05/05 04:43:18;;;;;;;5.27;3.57;;;;;;;;;;2103078;28;20185;-51
2021/05/05 04:44:18;;;;;;;5.50;3.87;;;;;;;;;;2108952;28;20193;-54
2021/05/05 04:45:18;;;;;;;7.87;4.97;;;;;;;;;;2108825;28;20615;-55
2021/05/05 04:46:19;;;;;;;5.75;3.15;;;;;;;;;;2105046;28;20195;-50
2021/05/05 04:47:19;;;;;;;5.70;3.20;;;;;;;;;;2097388;28;20277;-52
2021/05/05 04:48:19;;;;;;;5.33;3.23;;;;;;;;;;2098911;28;20167;-51
2021/05/05 04:49:20;;;;;;;7.60;3.53;;;;;;;;;;2100569;28;20189;-54
2021/05/05 04:50:20;;;;;;;7.50;4.10;;;;;;;;;;2092076;28;20205;-52
2021/05/05 04:51:21;;;;;;;9.33;3.97;;;;;;;;;;2100811;28;20210;-53
2021/05/05 04:52:21;;;;;;;5.77;3.43;;;;;;;;;;2104874;28;20177;-54
2021/05/05 04:53:22;;;;;;;5.57;3.40;;;;;;;;;;2109584;28;20644;-50
2021/05/05 04:54:23;;;;;;;3.27;2.83;;;;;;;;;;2101487;28;20671;-53
2021/05/05 04:55:23;;;;;;;8.30;3.40;;;;;;;;;;2091247;28;20172;-50
2021/05/05 04:56:23;;;;;;;6.10;3.53;;;;;;;;;;2090862;28;20171;-55
2021/05/05 04:57:24;;;;;;;10.50;3.77;;;;;;;;;;2091870;28;20195;-53
2021/05/05 04:58:24;;;;;;;6.93;3.00;;;;;;;;;;2101759;28;20170;-54
2021/05/05 04:59:24;;;;;;;9.20;3.83;;;;;;;;;;2099696;28;20671;-52
2021/05/05 05:00:25;;;;;;;7.50;3.67;;;;;;;;;;2096125;28;20171;-55
2021/05/05 05:01:25;;;;;;;8.67;4.50;;;;;;;;;;2103210;28;20534;-53
2021/05/05 05:02:26;;;;;;;10.10;3.43;;;;;;;;;;2102598;28;20316;-55
2021/05/05 05:03:26;;;;;;;5.83;3.30;;;;;;;;;;2105761;28;20186;-55
2021/05/05 05:04:26;;;;;;;7.40;3.40;;;;;;;;;;2110677;28;20270;-54
2021/05/05 05:05:26;;;;;;;6.20;3.27;;;;;;;;;;2098989;28;20210;-53
2021/05/05 05:06:27;;;;;;;4.33;3.10;;;;;;;;;;2102049;28;20185;-54
2021/05/05 05:07:27;;;;;;;8.63;3.73;;;;;;;;;;2099241;28;20304;-56
2021/05/05 05:08:27;;;;;;;4.63;3.50;;;;;;;;;;2097088;28;20249;-56
2021/05/05 05:09:27;;;;;;;6.40;3.73;;;;;;;;;;2108700;28;20659;-55
2021/05/05 05:10:28;;;;;;;7.53;4.07;;;;;;;;;;2113218;28;20158;-56
2021/05/05 05:11:28;;;;;;;5.43;3.40;;;;;;;;;;2105473;28;20166;-55
2021/05/05 05:12:28;;;;;;;9.87;3.60;;;;;;;;;;2110690;28;20162;-54
2021/05/05 05:13:28;;;;;;;5.57;3.13;;;;;;;;;;2096611;28;20633;-49
2021/05/05 05:14:29;;;;;;;9.87;3.50;;;;;;;;;;2102548;28;20187;-51
2021/05/05 05:15:29;;;;;;;9.33;3.80;;;;;;;;;;2107880;28;20186;-54
2021/05/05 05:16:29;;;;;;;8.57;3.63;;;;;;;;;;2105057;28;20189;-55
2021/05/05 05:17:29;;;;;;;8.30;3.87;;;;;;;;;;2106696;28;20220;-53
2021/05/05 05:18:30;;;;;;;8.67;3.80;;;;;;;;;;2104086;28;20257;-54
2021/05/05 05:19:30;;;;;;;9.83;3.63;;;;;;;;;;2099954;28;20250;-55
2021/05/05 05:20:30;;;;;;;6.27;3.77;;;;;;;;;;2107260;28;20712;-56
2021/05/05 05:21:31;;;;;;;4.80;2.90;;;;;;;;;;2103622;28;20654;-51
2021/05/05 05:22:32;;;;;;;7.70;3.27;;;;;;;;;;2100825;28;20228;-51
2021/05/05 05:23:33;;;;;;;4.43;3.17;;;;;;;;;;2109242;28;20174;-56
2021/05/05 05:24:33;;;;;;;7.73;3.57;;;;;;;;;;2113416;28;20174;-54
2021/05/05 05:25:33;;;;;;;8.10;3.87;;;;;;;;;;2106261;28;20609;-55
2021/05/05 05:26:33;;;;;;;10.00;3.13;;;;;;;;;;2106815;28;20205;-47
2021/05/05 05:28:38;;;;;;;8.30;3.90;;;;;;;;;;2090578;28;20203;-56
2021/05/05 05:29:38;;;;;;;3.37;2.90;;;;;;;;;;2088990;28;20262;-55
2021/05/05 05:30:39;;;;;;;12.63;4.20;;;;;;;;;;2090463;28;20175;-53
2021/05/05 05:31:39;;;;;;;6.33;3.30;;;;;;;;;;2103198;28;20170;-56
2021/05/05 05:32:39;;;;;;;9.83;3.80;;;;;;;;;;2095302;28;20172;-56
2021/05/05 05:33:40;;;;;;;7.97;3.60;;;;;;;;;;2094798;28;20171;-56
2021/05/05 05:34:40;;;;;;;10.83;3.63;;;;;;;;;;2097231;28;20261;-55
2021/05/05 05:35:40;;;;;;;12.77;4.93;;;;;;;;;;2096155;28;20244;-55
2021/05/05 05:36:40;;;;;;;5.80;3.03;;;;;;;;;;2095353;28;20734;-54
2021/05/05 05:37:41;;;;;;;7.13;3.73;;;;;;;;;;2099107;28;20261;-58
2021/05/05 05:38:41;;;;;;;10.40;4.33;;;;;;;;;;2107093;28;20693;-58
2021/05/05 05:39:41;;;;;;;7.40;3.70;;;;;;;;;;2094505;28;20164;-58
2021/05/05 05:40:42;;;;;;;3.33;3.07;;;;;;;;;;2094711;28;20178;-59
2021/05/05 05:41:42;;;;;;;10.67;4.47;;;;;;;;;;2105772;28;20185;-58
2021/05/05 05:42:42;;;;;;;9.17;4.27;;;;;;;;;;2108244;28;20181;-60
2021/05/05 05:43:43;;;;;;;10.37;3.70;;;;;;;;;;2107647;28;20174;-56
2021/05/05 05:44:43;;;;;;;7.20;3.80;;;;;;;;;;2103717;28;20618;-58
2021/05/05 05:45:43;;;;;;;7.70;3.80;;;;;;;;;;2109222;28;20170;-57
2021/05/05 05:46:44;;;;;;;4.47;3.60;;;;;;;;;;2085852;28;20218;-59
2021/05/05 05:47:44;;;;;;;8.07;3.83;;;;;;;;;;2090403;28;20168;-58
2021/05/05 05:48:45;;;;;;;5.93;3.50;;;;;;;;;;2107611;28;20166;-58
2021/05/05 05:49:45;;;;;;;11.97;4.33;;;;;;;;;;2103079;28;20214;-55
2021/05/05 05:50:45;;;;;;;3.23;2.77;;;;;;;;;;2104521;28;20217;-57
2021/05/05 05:51:45;;;;;;;10.47;3.70;;;;;;;;;;2105236;28;20213;-58
2021/05/05 05:52:46;;;;;;;10.23;4.23;;;;;;;;;;2100381;28;20217;-57
2021/05/05 05:53:47;;;;;;;6.27;3.57;;;;;;;;;;2099529;28;20206;-59
2021/05/05 05:54:47;;;;;;;9.00;4.37;;;;;;;;;;2098979;28;20197;-58
2021/05/05 05:55:47;;;;;;;6.53;4.03;;;;;;;;;;2107806;28;20178;-58
2021/05/05 05:56:48;;;;;;;10.67;3.37;;;;;;;;;;2099946;28;20209;-60
2021/05/05 05:57:49;;;;;;;7.30;3.70;;;;;;;;;;2099007;28;20194;-58
2021/05/05 05:58:49;;;;;;;12.47;4.30;;;;;;;;;;2099820;28;20201;-60
2021/05/05 05:59:50;;;;;;;14.57;4.63;;;;;;;;;;2102998;28;20671;-58
2021/05/05 06:00:51;;;;;;;10.60;3.70;;;;;;;;;;2107132;28;20182;-58
2021/05/05 06:01:51;;;;;;;8.43;4.03;;;;;;;;;;2112248;28;20631;-59
2021/05/05 06:02:51;;;;;;;11.57;4.30;;;;;;;;;;2099641;28;20328;-60
2021/05/05 06:03:52;;;;;;;10.67;4.57;;;;;;;;;;2098958;28;20205;-56
2021/05/05 06:04:52;;;;;;;9.87;3.10;;;;;;;;;;2105586;28;20237;-56
2021/05/05 06:05:52;;;;;;;7.83;3.87;;;;;;;;;;2110750;28;20178;-56
2021/05/05 06:06:52;;;;;;;7.80;3.80;;;;;;;;;;2107481;28;20682;-56